createdAt,value
2023-05-12T00:01:49.543Z,60.18
2023-05-12T00:04:15.837Z,60.04
2023-05-12T00:06:42.140Z,59.97
2023-05-12T00:09:08.435Z,59.67
2023-05-12T00:11:34.691Z,59.27
2023-05-12T00:14:00.962Z,59.94
2023-05-12T00:16:27.292Z,59.90
2023-05-12T00:18:53.560Z,59.84
2023-05-12T00:21:19.858Z,59.44
2023-05-12T00:23:46.109Z,59.46
2023-05-12T00:26:12.363Z,59.66
2023-05-12T00:28:38.635Z,59.93
2023-05-12T00:31:04.983Z,59.89
2023-05-12T00:33:31.317Z,59.74
2023-05-12T00:35:57.578Z,59.67
2023-05-12T00:38:23.840Z,60.07
2023-05-12T00:40:50.096Z,59.70
2023-05-12T00:43:16.341Z,60.14
2023-05-12T00:45:42.625Z,60.31
2023-05-12T00:48:08.951Z,60.89
2023-05-12T00:50:35.265Z,61.62
2023-05-12T00:53:01.543Z,61.45
2023-05-12T00:55:27.795Z,62.17
2023-05-12T00:57:54.049Z,62.55
2023-05-12T01:00:20.634Z,63.17
2023-05-12T01:02:47.278Z,62.67
2023-05-12T01:05:13.961Z,62.03
2023-05-12T01:07:40.264Z,62.32
2023-05-12T01:10:06.520Z,61.89
2023-05-12T01:12:32.785Z,62.10
2023-05-12T01:14:59.061Z,62.37
2023-05-12T01:17:25.379Z,61.96
2023-05-12T01:19:51.669Z,62.08
2023-05-12T01:22:17.945Z,62.55
2023-05-12T01:24:44.203Z,63.00
2023-05-12T01:27:10.681Z,63.14
2023-05-12T01:29:36.955Z,63.45
2023-05-12T01:32:03.237Z,63.16
2023-05-12T01:34:29.496Z,63.12
2023-05-12T01:36:55.769Z,63.38
2023-05-12T01:39:22.036Z,63.34
2023-05-12T01:41:48.297Z,63.00
2023-05-12T01:44:14.550Z,63.58
2023-05-12T01:46:40.866Z,65.16
2023-05-12T01:49:07.144Z,65.21
2023-05-12T01:51:33.666Z,64.99
2023-05-12T01:53:59.919Z,65.28
2023-05-12T01:56:26.173Z,65.78
2023-05-12T01:58:52.485Z,65.82
2023-05-12T02:01:18.771Z,64.56
2023-05-12T02:03:45.201Z,64.85
2023-05-12T02:06:11.542Z,64.40
2023-05-12T02:08:37.912Z,63.83
2023-05-12T02:11:04.185Z,63.91
2023-05-12T02:13:30.455Z,64.41
2023-05-12T02:15:56.784Z,63.97
2023-05-12T02:18:23.153Z,63.37
2023-05-12T02:20:49.495Z,62.92
2023-05-12T02:23:15.781Z,62.65
2023-05-12T02:25:42.085Z,62.42
2023-05-12T02:28:08.336Z,62.73
2023-05-12T02:30:34.596Z,61.67
2023-05-12T02:33:00.946Z,62.00
2023-05-12T02:35:27.220Z,61.85
2023-05-12T02:37:53.503Z,62.47
2023-05-12T02:40:20.076Z,62.67
2023-05-12T02:42:46.433Z,61.87
2023-05-12T02:45:12.704Z,62.54
2023-05-12T02:47:39.187Z,63.20
2023-05-12T02:50:05.467Z,63.08
2023-05-12T02:52:31.731Z,63.33
2023-05-12T02:54:58.000Z,62.51
2023-05-12T02:57:24.265Z,63.34
2023-05-12T02:59:50.505Z,63.96
2023-05-12T03:02:16.787Z,64.16
2023-05-12T03:04:43.100Z,63.79
2023-05-12T03:07:09.394Z,64.18
2023-05-12T03:09:35.670Z,64.73
2023-05-12T03:12:01.947Z,64.99
2023-05-12T03:14:28.192Z,64.82
2023-05-12T03:16:54.507Z,64.72
2023-05-12T03:19:20.824Z,64.88
2023-05-12T03:21:47.105Z,65.27
2023-05-12T03:24:13.445Z,65.06
2023-05-12T03:26:39.716Z,65.31
2023-05-12T03:29:05.986Z,65.29
2023-05-12T03:31:32.299Z,65.06
2023-05-12T03:33:58.569Z,65.28
2023-05-12T03:36:24.861Z,65.02
2023-05-12T03:38:51.120Z,64.72
2023-05-12T03:41:17.397Z,65.48
2023-05-12T03:43:43.672Z,64.63
2023-05-12T03:46:09.973Z,65.04
2023-05-12T03:48:36.265Z,64.53
2023-05-12T03:51:02.512Z,65.07
2023-05-12T03:53:28.769Z,65.05
2023-05-12T03:55:55.016Z,64.29
2023-05-12T03:58:21.283Z,64.56
2023-05-12T04:00:47.545Z,64.23
2023-05-12T04:03:13.861Z,64.41
2023-05-12T04:05:40.201Z,64.67
2023-05-12T04:08:06.447Z,64.87
2023-05-12T04:10:32.762Z,64.77
2023-05-12T04:12:59.023Z,64.41
2023-05-12T04:15:25.550Z,64.71
2023-05-12T04:17:51.817Z,64.83
2023-05-12T04:20:18.270Z,65.02
2023-05-12T04:22:44.645Z,65.12
2023-05-12T04:25:10.940Z,65.03
2023-05-12T04:27:37.205Z,65.67
2023-05-12T04:30:03.457Z,65.79
2023-05-12T04:32:29.756Z,65.82
2023-05-12T04:34:56.087Z,66.13
2023-05-12T04:37:22.353Z,66.14
2023-05-12T04:39:48.608Z,66.44
2023-05-12T04:42:14.894Z,65.53
2023-05-12T04:44:41.161Z,65.09
2023-05-12T04:47:07.424Z,65.72
2023-05-12T04:49:33.709Z,65.46
2023-05-12T04:52:00.187Z,65.91
2023-05-12T04:54:26.491Z,66.31
2023-05-12T04:56:52.758Z,66.33
2023-05-12T04:59:19.022Z,66.61
2023-05-12T05:01:45.400Z,66.90
2023-05-12T05:04:11.828Z,66.81
2023-05-12T05:06:38.087Z,66.80
2023-05-12T05:09:04.349Z,66.97
2023-05-12T05:11:30.614Z,66.83
2023-05-12T05:13:56.892Z,66.77
2023-05-12T05:16:23.212Z,67.08
2023-05-12T05:18:49.613Z,67.06
2023-05-12T05:21:15.975Z,66.99
2023-05-12T05:23:42.250Z,66.12
2023-05-12T05:26:08.745Z,66.30
2023-05-12T05:28:35.025Z,66.66
2023-05-12T05:31:01.310Z,66.18
2023-05-12T05:33:27.576Z,66.61
2023-05-12T05:35:53.832Z,66.35
2023-05-12T05:38:20.091Z,65.88
2023-05-12T05:40:53.643Z,65.56
2023-05-12T05:43:20.673Z,66.57
2023-05-12T05:45:46.940Z,66.98
2023-05-12T05:48:13.203Z,67.28
2023-05-12T05:50:39.472Z,67.01
2023-05-12T05:53:05.896Z,66.13
2023-05-12T05:55:32.152Z,66.51
2023-05-12T05:57:58.407Z,66.40
2023-05-12T06:00:24.659Z,66.34
2023-05-12T06:02:51.035Z,65.69
2023-05-12T06:05:17.468Z,64.66
2023-05-12T06:07:43.862Z,64.22
2023-05-12T06:10:10.133Z,62.80
2023-05-12T06:12:36.415Z,62.96
2023-05-12T06:15:02.714Z,63.93
2023-05-12T06:17:30.312Z,63.77
2023-05-12T06:19:58.264Z,64.25
2023-05-12T06:22:24.508Z,65.13
2023-05-12T06:24:50.753Z,64.22
2023-05-12T06:27:17.019Z,64.55
2023-05-12T06:29:43.298Z,64.82
2023-05-12T06:32:09.613Z,64.24
2023-05-12T06:34:35.993Z,64.05
2023-05-12T06:37:02.262Z,64.36
2023-05-12T06:39:28.510Z,64.48
2023-05-12T06:41:54.788Z,64.76
2023-05-12T06:44:21.053Z,63.88
2023-05-12T06:46:47.370Z,63.95
2023-05-12T06:49:13.728Z,63.26
2023-05-12T06:51:39.990Z,62.79
2023-05-12T06:54:06.250Z,61.03
2023-05-12T06:56:32.490Z,61.23
2023-05-12T06:58:58.752Z,61.19
2023-05-12T07:01:25.048Z,60.13
2023-05-12T07:03:51.323Z,60.71
2023-05-12T07:06:17.687Z,60.02
2023-05-12T07:08:43.937Z,60.22
2023-05-12T07:11:10.200Z,59.43
2023-05-12T07:13:36.472Z,60.11
2023-05-12T07:16:02.807Z,60.05
2023-05-12T07:18:29.191Z,59.52
2023-05-12T07:20:55.552Z,59.89
2023-05-12T07:23:21.808Z,59.41
2023-05-12T07:25:48.089Z,59.54
2023-05-12T07:28:14.352Z,58.79
2023-05-12T07:30:40.618Z,59.23
2023-05-12T07:33:06.967Z,58.59
2023-05-12T07:35:33.266Z,57.76
2023-05-12T07:37:59.595Z,57.60
2023-05-12T07:40:25.926Z,57.59
2023-05-12T07:42:52.230Z,56.92
2023-05-12T07:45:18.658Z,57.39
2023-05-12T07:47:45.205Z,57.33
2023-05-12T07:50:11.462Z,56.40
2023-05-12T07:52:37.725Z,57.43
2023-05-12T07:55:03.993Z,57.09
2023-05-12T07:57:30.269Z,57.05
2023-05-12T07:59:56.557Z,57.00
2023-05-12T08:02:22.882Z,56.24
2023-05-12T08:04:49.190Z,56.30
2023-05-12T08:07:15.437Z,56.32
2023-05-12T08:09:41.689Z,56.91
2023-05-12T08:12:07.974Z,56.81
2023-05-12T08:14:34.237Z,57.39
2023-05-12T08:17:00.543Z,56.42
2023-05-12T08:19:26.858Z,56.49
2023-05-12T08:21:53.127Z,55.69
2023-05-12T08:24:19.408Z,56.29
2023-05-12T08:26:45.683Z,56.27
2023-05-12T08:29:11.949Z,56.49
2023-05-12T08:31:38.299Z,55.26
2023-05-12T08:34:10.349Z,56.13
2023-05-12T08:36:37.279Z,56.84
2023-05-12T08:39:03.554Z,55.37
2023-05-12T08:41:29.820Z,55.45
2023-05-12T08:43:56.140Z,55.05
2023-05-12T08:46:22.499Z,55.37
2023-05-12T08:48:48.782Z,54.37
2023-05-12T08:51:15.061Z,54.46
2023-05-12T08:53:41.320Z,53.33
2023-05-12T08:58:41.551Z,53.90
2023-05-12T09:01:08.659Z,53.77
2023-05-12T09:03:35.234Z,53.18
2023-05-12T09:06:01.544Z,53.21
2023-05-12T09:08:27.825Z,53.19
2023-05-12T09:10:54.101Z,53.11
2023-05-12T09:13:20.368Z,52.98
2023-05-12T09:15:46.641Z,53.46
2023-05-12T09:18:12.900Z,52.62
2023-05-12T09:20:39.183Z,52.29
2023-05-12T09:23:05.442Z,52.26
2023-05-12T09:25:31.756Z,51.20
2023-05-12T09:27:58.043Z,51.50
2023-05-12T09:30:24.329Z,50.97
2023-05-12T09:32:50.648Z,49.84
2023-05-12T09:35:16.993Z,50.83
2023-05-12T09:37:43.259Z,49.51
2023-05-12T09:40:09.550Z,49.73
2023-05-12T09:42:35.821Z,49.52
2023-05-12T09:45:02.125Z,48.81
2023-05-12T09:47:28.486Z,48.75
2023-05-12T09:49:54.795Z,48.70
2023-05-12T09:52:21.066Z,50.20
2023-05-12T09:54:47.323Z,49.03
2023-05-12T09:57:13.590Z,48.90
2023-05-12T09:59:41.600Z,49.28
2023-05-12T10:02:09.478Z,49.11
2023-05-12T10:04:35.856Z,49.25
2023-05-12T10:07:02.268Z,48.60
2023-05-12T10:09:28.540Z,48.90
2023-05-12T10:11:54.868Z,48.88
2023-05-12T10:14:21.156Z,47.86
2023-05-12T10:16:47.468Z,46.54
2023-05-12T10:19:13.768Z,47.17
2023-05-12T10:21:40.201Z,47.64
2023-05-12T10:24:06.509Z,47.43
2023-05-12T10:26:32.817Z,48.32
2023-05-12T10:28:59.104Z,48.47
2023-05-12T10:31:25.488Z,48.04
2023-05-12T10:33:53.241Z,48.18
2023-05-12T10:36:19.512Z,47.04
2023-05-12T10:38:45.801Z,47.96
2023-05-12T10:41:12.090Z,47.17
2023-05-12T10:43:41.622Z,46.93
2023-05-12T10:46:08.147Z,47.52
2023-05-12T10:48:34.438Z,47.98
2023-05-12T10:51:00.759Z,47.48
2023-05-12T10:53:32.634Z,47.23
2023-05-12T10:56:08.197Z,46.59
2023-05-12T10:58:34.972Z,47.08
2023-05-12T11:01:02.116Z,47.00
2023-05-12T11:03:30.211Z,47.58
2023-05-12T11:05:57.488Z,47.39
2023-05-12T11:08:24.963Z,46.42
2023-05-12T11:10:51.458Z,47.08
2023-05-12T11:13:17.816Z,46.87
2023-05-12T11:15:44.152Z,46.43
2023-05-12T11:18:10.494Z,48.04
2023-05-12T11:20:36.781Z,46.83
2023-05-12T11:23:03.138Z,47.75
2023-05-12T11:25:29.536Z,47.84
2023-05-12T11:27:55.822Z,46.67
2023-05-12T11:30:22.084Z,47.20
2023-05-12T11:32:48.350Z,46.77
2023-05-12T11:35:14.675Z,47.00
2023-05-12T11:37:40.962Z,46.59
2023-05-12T11:40:07.245Z,45.49
2023-05-12T11:42:33.498Z,43.66
2023-05-12T11:44:59.762Z,45.07
2023-05-12T11:47:26.105Z,46.00
2023-05-12T11:49:52.597Z,47.32
2023-05-12T11:52:18.848Z,45.22
2023-05-12T11:54:45.114Z,44.48
2023-05-12T11:57:11.402Z,44.83
2023-05-12T11:59:37.672Z,45.06
2023-05-12T12:02:04.059Z,45.14
2023-05-12T12:04:30.440Z,45.46
2023-05-12T12:06:59.554Z,44.10
2023-05-12T12:09:25.818Z,42.79
2023-05-12T12:11:52.074Z,41.69
2023-05-12T12:14:18.326Z,41.18
2023-05-12T12:16:44.573Z,42.17
2023-05-12T12:19:10.939Z,42.16
2023-05-12T12:21:37.301Z,42.38
2023-05-12T12:24:03.580Z,42.65
2023-05-12T12:26:29.852Z,42.82
2023-05-12T12:28:56.103Z,42.04
2023-05-12T12:31:22.375Z,41.46
2023-05-12T12:33:48.654Z,43.19
2023-05-12T12:36:14.926Z,41.74
2023-05-12T12:38:41.182Z,42.66
2023-05-12T12:41:07.467Z,42.05
2023-05-12T12:43:33.715Z,42.74
2023-05-12T12:46:00.008Z,43.09
2023-05-12T12:48:26.290Z,43.20
2023-05-12T12:50:52.541Z,42.90
2023-05-12T12:53:18.794Z,43.28
2023-05-12T12:55:45.065Z,43.27
2023-05-12T12:58:11.357Z,43.16
2023-05-12T13:00:37.687Z,42.44
2023-05-12T13:03:04.061Z,42.50
2023-05-12T13:05:30.422Z,43.06
2023-05-12T13:07:56.851Z,43.11
2023-05-12T13:10:23.145Z,42.86
2023-05-12T13:12:49.426Z,41.95
2023-05-12T13:15:16.966Z,40.34
2023-05-12T13:17:44.247Z,39.21
2023-05-12T13:20:10.538Z,40.16
2023-05-12T13:22:36.798Z,41.17
2023-05-12T13:25:04.322Z,42.60
2023-05-12T13:27:32.237Z,41.04
2023-05-12T13:29:58.480Z,40.49
2023-05-12T13:32:24.808Z,41.21
2023-05-12T13:34:51.129Z,39.02
2023-05-12T13:37:17.402Z,40.53
2023-05-12T13:39:43.655Z,40.00
2023-05-12T13:42:09.950Z,40.39
2023-05-12T13:44:36.221Z,41.38
2023-05-12T13:47:02.497Z,40.24
2023-05-12T13:49:29.005Z,40.25
2023-05-12T13:51:55.275Z,40.86
2023-05-12T13:54:21.557Z,40.22
2023-05-12T13:56:47.807Z,41.06
2023-05-12T13:59:14.102Z,41.81
2023-05-12T14:01:40.402Z,40.83
2023-05-12T14:04:06.695Z,41.04
2023-05-12T14:06:32.977Z,40.37
2023-05-12T14:08:59.249Z,40.24
2023-05-12T14:11:25.515Z,38.86
2023-05-12T14:13:51.784Z,39.42
2023-05-12T14:16:18.170Z,37.96
2023-05-12T14:18:44.572Z,39.53
2023-05-12T14:21:10.958Z,38.37
2023-05-12T14:23:37.218Z,38.14
2023-05-12T14:26:03.522Z,39.15
2023-05-12T14:28:29.854Z,39.48
2023-05-12T14:30:56.243Z,38.10
2023-05-12T14:33:22.529Z,38.94
2023-05-12T14:35:59.317Z,38.55
2023-05-12T14:38:29.806Z,38.13
2023-05-12T14:40:56.097Z,38.74
2023-05-12T14:43:22.381Z,38.09
2023-05-12T14:45:48.695Z,38.35
2023-05-12T14:48:15.016Z,37.06
2023-05-12T14:50:41.283Z,36.99
2023-05-12T14:53:07.538Z,37.94
2023-05-12T14:55:33.784Z,37.81
2023-05-12T14:58:00.052Z,37.12
2023-05-12T15:00:28.154Z,36.94
2023-05-12T15:02:54.514Z,37.06
2023-05-12T15:05:22.985Z,36.84
2023-05-12T15:07:53.887Z,37.04
2023-05-12T15:10:20.179Z,37.81
2023-05-12T15:12:46.486Z,37.33
2023-05-12T15:15:12.749Z,38.56
2023-05-12T15:17:39.074Z,38.65
2023-05-12T15:20:05.401Z,38.47
2023-05-12T15:22:31.713Z,39.93
2023-05-12T15:24:58.000Z,39.23
2023-05-12T15:27:24.276Z,38.05
2023-05-12T15:29:50.528Z,37.78
2023-05-12T15:32:16.785Z,37.30
2023-05-12T15:34:43.040Z,37.34
2023-05-12T15:37:09.382Z,36.61
2023-05-12T15:39:35.645Z,36.75
2023-05-12T15:42:01.957Z,36.28
2023-05-12T15:44:28.228Z,36.22
2023-05-12T15:46:54.565Z,37.15
2023-05-12T15:49:20.901Z,37.21
2023-05-12T15:51:47.185Z,36.38
2023-05-12T15:54:13.450Z,37.26
2023-05-12T15:56:39.753Z,37.71
2023-05-12T15:59:06.035Z,38.72
2023-05-12T16:01:32.438Z,38.44
2023-05-12T16:03:58.897Z,38.76
2023-05-12T16:06:25.248Z,39.38
2023-05-12T16:08:51.556Z,39.08
2023-05-12T16:11:17.827Z,39.48
2023-05-12T16:13:44.206Z,38.66
2023-05-12T16:16:10.515Z,37.62
2023-05-12T16:18:36.888Z,37.99
2023-05-12T16:21:03.223Z,38.49
2023-05-12T16:23:29.532Z,39.06
2023-05-12T16:25:55.890Z,39.33
2023-05-12T16:28:22.185Z,38.44
2023-05-12T16:30:48.442Z,37.67
2023-05-12T16:33:14.888Z,37.53
2023-05-12T16:35:41.188Z,37.86
2023-05-12T16:38:07.436Z,37.53
2023-05-12T16:40:33.735Z,38.16
2023-05-12T16:43:00.015Z,37.61
2023-05-12T16:45:26.275Z,37.39
2023-05-12T16:47:52.582Z,36.80
2023-05-12T16:50:19.011Z,36.03
2023-05-12T16:52:45.313Z,33.54
2023-05-12T16:55:11.961Z,33.30
2023-05-12T16:57:39.086Z,32.57
2023-05-12T17:00:06.722Z,31.46
2023-05-12T17:02:33.144Z,31.05
2023-05-12T17:04:59.472Z,30.68
2023-05-12T17:07:25.714Z,31.04
2023-05-12T17:09:51.988Z,31.98
2023-05-12T17:12:18.273Z,33.87
2023-05-12T17:14:50.204Z,34.37
2023-05-12T17:17:22.300Z,35.82
2023-05-12T17:19:48.646Z,36.35
2023-05-12T17:22:14.980Z,37.60
2023-05-12T17:24:41.244Z,35.26
2023-05-12T17:27:07.516Z,34.42
2023-05-12T17:29:33.811Z,33.56
2023-05-12T17:32:00.131Z,32.86
2023-05-12T17:34:26.428Z,33.28
2023-05-12T17:36:52.746Z,35.25
2023-05-12T17:39:19.030Z,36.38
2023-05-12T17:41:45.266Z,36.45
2023-05-12T17:44:11.517Z,36.80
2023-05-12T17:46:37.926Z,36.85
2023-05-12T17:49:04.244Z,37.04
2023-05-12T17:51:30.518Z,37.67
2023-05-12T17:53:56.855Z,37.67
2023-05-12T17:56:23.143Z,38.45
2023-05-12T17:58:49.408Z,38.67
2023-05-12T18:01:15.862Z,38.91
2023-05-12T18:03:42.274Z,39.54
2023-05-12T18:06:08.609Z,39.65
2023-05-12T18:08:34.874Z,39.42
2023-05-12T18:11:01.170Z,39.95
2023-05-12T18:13:27.511Z,40.13
2023-05-12T18:15:53.787Z,40.51
2023-05-12T18:18:20.064Z,40.98
2023-05-12T18:20:46.339Z,41.10
2023-05-12T18:23:12.610Z,41.18
2023-05-12T18:25:38.860Z,41.47
2023-05-12T18:28:05.128Z,42.09
2023-05-12T18:30:31.417Z,42.32
2023-05-12T18:32:57.765Z,42.85
2023-05-12T18:35:24.340Z,42.57
2023-05-12T18:37:50.774Z,43.16
2023-05-12T18:40:17.035Z,42.93
2023-05-12T18:42:43.317Z,43.35
2023-05-12T18:45:09.605Z,43.44
2023-05-12T18:47:35.892Z,43.86
2023-05-12T18:50:02.198Z,43.82
2023-05-12T18:52:28.469Z,44.08
2023-05-12T18:54:54.766Z,44.17
2023-05-12T18:57:21.038Z,44.11
2023-05-12T18:59:47.302Z,45.01
2023-05-12T19:02:13.582Z,44.46
2023-05-12T19:04:39.903Z,44.93
2023-05-12T19:07:06.245Z,44.46
2023-05-12T19:09:32.519Z,44.67
2023-05-12T19:11:58.901Z,44.49
2023-05-12T19:14:25.166Z,44.99
2023-05-12T19:16:51.451Z,44.96
2023-05-12T19:19:17.767Z,44.68
2023-05-12T19:21:44.089Z,44.80
2023-05-12T19:24:10.352Z,45.30
2023-05-12T19:26:36.688Z,45.17
2023-05-12T19:29:02.989Z,45.57
2023-05-12T19:31:29.279Z,46.31
2023-05-12T19:33:55.581Z,46.13
2023-05-12T19:36:21.851Z,46.61
2023-05-12T19:38:48.103Z,46.93
2023-05-12T19:41:14.374Z,46.41
2023-05-12T19:43:40.668Z,46.42
2023-05-12T19:46:07.040Z,46.49
2023-05-12T19:48:33.336Z,46.46
2023-05-12T19:50:59.722Z,47.08
2023-05-12T19:53:25.987Z,47.20
2023-05-12T19:55:52.245Z,46.70
2023-05-12T19:58:18.556Z,47.43
2023-05-12T20:00:44.813Z,48.30
2023-05-12T20:03:11.193Z,48.53
2023-05-12T20:05:37.780Z,49.01
2023-05-12T20:08:04.132Z,49.43
2023-05-12T20:10:30.513Z,49.48
2023-05-12T20:12:56.794Z,50.09
2023-05-12T20:15:23.194Z,50.27
2023-05-12T20:17:49.575Z,49.56
2023-05-12T20:20:15.932Z,50.10
2023-05-12T20:22:42.186Z,49.88
2023-05-12T20:25:08.469Z,49.53
2023-05-12T20:27:34.759Z,50.17
2023-05-12T20:30:01.108Z,49.79
2023-05-12T20:32:27.589Z,50.04
2023-05-12T20:34:53.854Z,50.15
2023-05-12T20:37:20.179Z,49.66
2023-05-12T20:39:46.535Z,50.08
2023-05-12T20:42:12.892Z,50.02
2023-05-12T20:44:39.164Z,49.95
2023-05-12T20:47:05.545Z,50.42
2023-05-12T20:49:31.869Z,49.56
2023-05-12T20:51:58.159Z,50.05
2023-05-12T20:54:24.507Z,50.33
2023-05-12T20:56:50.797Z,50.12
2023-05-12T20:59:17.075Z,50.49
2023-05-12T21:01:43.442Z,49.96
2023-05-12T21:04:09.845Z,49.98
2023-05-12T21:06:36.240Z,50.39
2023-05-12T21:09:02.667Z,50.24
2023-05-12T21:11:28.984Z,50.05
2023-05-12T21:13:55.235Z,50.49
2023-05-12T21:16:21.580Z,50.17
2023-05-12T21:18:48.046Z,50.86
2023-05-12T21:21:14.728Z,51.06
2023-05-12T21:23:41.067Z,51.01
2023-05-12T21:26:07.414Z,50.95
2023-05-12T21:28:33.706Z,51.22
2023-05-12T21:30:59.966Z,51.83
2023-05-12T21:33:26.231Z,51.83
2023-05-12T21:35:52.692Z,51.69
2023-05-12T21:38:19.086Z,51.61
2023-05-12T21:40:45.338Z,51.77
2023-05-12T21:43:11.593Z,51.37
2023-05-12T21:45:37.945Z,51.72
2023-05-12T21:48:04.311Z,51.21
2023-05-12T21:50:30.658Z,51.42
2023-05-12T21:52:56.950Z,51.49
2023-05-12T21:55:23.241Z,51.82
2023-05-12T21:57:49.506Z,51.19
2023-05-12T22:00:15.792Z,51.55
2023-05-12T22:02:42.207Z,51.55
2023-05-12T22:05:08.504Z,51.68
2023-05-12T22:07:34.765Z,51.88
2023-05-12T22:10:01.045Z,52.01
2023-05-12T22:12:27.304Z,51.89
2023-05-12T22:14:53.566Z,51.76
2023-05-12T22:17:19.835Z,51.79
2023-05-12T22:19:46.118Z,52.03
2023-05-12T22:22:12.388Z,52.58
2023-05-12T22:24:38.636Z,52.36
2023-05-12T22:27:05.921Z,52.50
2023-05-12T22:29:32.188Z,52.74
2023-05-12T22:31:58.490Z,52.57
2023-05-12T22:34:24.748Z,52.60
2023-05-12T22:36:51.010Z,52.87
2023-05-12T22:39:17.274Z,53.02
2023-05-12T22:41:43.548Z,53.14
2023-05-12T22:44:09.798Z,53.18
2023-05-12T22:46:36.085Z,53.10
2023-05-12T22:49:02.335Z,52.89
2023-05-12T22:51:28.599Z,52.40
2023-05-12T22:53:54.876Z,53.04
2023-05-12T22:56:21.122Z,53.03
2023-05-12T22:58:47.376Z,53.45
2023-05-12T23:01:13.693Z,53.51
2023-05-12T23:03:40.001Z,53.64
2023-05-12T23:06:06.321Z,53.68
2023-05-12T23:08:32.607Z,53.62
2023-05-12T23:10:58.888Z,53.81
2023-05-12T23:13:25.181Z,54.04
2023-05-12T23:15:51.452Z,54.08
2023-05-12T23:18:17.776Z,54.16
2023-05-12T23:20:44.036Z,54.53
2023-05-12T23:23:10.274Z,53.96
2023-05-12T23:25:36.539Z,54.42
2023-05-12T23:28:02.778Z,54.53
2023-05-12T23:30:29.037Z,54.28
2023-05-12T23:32:55.433Z,54.44
2023-05-12T23:35:21.774Z,54.46
2023-05-12T23:37:48.047Z,54.27
2023-05-12T23:40:14.324Z,54.33
2023-05-12T23:42:40.575Z,54.33
2023-05-12T23:45:06.850Z,54.23
2023-05-12T23:47:33.154Z,54.20
2023-05-12T23:49:59.454Z,54.40
2023-05-12T23:52:25.697Z,54.62
2023-05-12T23:54:51.960Z,54.25
2023-05-12T23:57:18.268Z,54.78
2023-05-12T23:59:44.562Z,54.80
